TimeCDT,TemperatureF,Dew PointF,Humidity,Sea Level PressureIn,VisibilityMPH,Wind Direction,Wind SpeedMPH,Gust SpeedMPH,PrecipitationIn,Events,Conditions,WindDirDegrees,DateUTC
12:53 AM,73.0,66.9,81,29.94,10.0,South,10.4,-,N/A,,Overcast,170,2013-05-16 05:53:00
1:53 AM,72.0,66.9,84,29.93,10.0,South,9.2,17.3,N/A,,Mostly Cloudy,180,2013-05-16 06:53:00
2:53 AM,72.0,66.9,84,29.92,10.0,SSE,5.8,-,N/A,,Mostly Cloudy,160,2013-05-16 07:53:00
3:36 AM,71.6,68.0,88,29.90,10.0,SSE,8.1,-,N/A,,Overcast,160,2013-05-16 08:36:00
3:53 AM,72.0,68.0,87,29.90,10.0,SSE,10.4,-,N/A,,Mostly Cloudy,160,2013-05-16 08:53:00
4:53 AM,72.0,68.0,87,29.96,10.0,Calm,Calm,-,N/A,,Overcast,0,2013-05-16 09:53:00
5:53 AM,72.0,68.0,87,29.97,10.0,Calm,Calm,-,N/A,,Overcast,0,2013-05-16 10:53:00
6:53 AM,72.0,68.0,87,29.98,10.0,NE,3.5,-,0.00,,Overcast,40,2013-05-16 11:53:00
7:11 AM,71.6,68.0,88,29.95,10.0,NE,4.6,-,N/A,,Mostly Cloudy,50,2013-05-16 12:11:00
7:53 AM,73.0,68.0,84,29.96,10.0,East,5.8,-,N/A,,Scattered Clouds,90,2013-05-16 12:53:00
8:53 AM,75.9,68.0,76,29.93,10.0,SSE,10.4,-,N/A,,Scattered Clouds,150,2013-05-16 13:53:00
9:53 AM,78.1,66.9,68,29.92,10.0,SSE,12.7,19.6,N/A,,Scattered Clouds,160,2013-05-16 14:53:00
10:53 AM,80.1,68.0,67,29.91,10.0,SSE,12.7,21.9,N/A,,Scattered Clouds,160,2013-05-16 15:53:00
11:26 AM,80.6,68.0,65,29.89,10.0,South,15.0,-,N/A,,Mostly Cloudy,170,2013-05-16 16:26:00
11:53 AM,81.0,68.0,65,29.90,10.0,SSE,15.0,-,N/A,,Mostly Cloudy,160,2013-05-16 16:53:00
12:44 PM,80.6,66.2,61,29.87,10.0,South,15.0,24.2,N/A,,Mostly Cloudy,180,2013-05-16 17:44:00
12:53 PM,81.0,68.0,65,29.88,10.0,South,15.0,23.0,N/A,,Mostly Cloudy,180,2013-05-16 17:53:00
1:53 PM,82.0,69.1,65,29.88,10.0,SSE,13.8,21.9,N/A,,Mostly Cloudy,150,2013-05-16 18:53:00
2:35 PM,80.6,69.8,70,29.86,10.0,SSE,17.3,21.9,N/A,,Mostly Cloudy,160,2013-05-16 19:35:00
2:53 PM,80.1,70.0,71,29.88,10.0,SSE,13.8,18.4,N/A,,Mostly Cloudy,150,2013-05-16 19:53:00
3:53 PM,79.0,70.0,74,29.86,10.0,SSE,13.8,20.7,N/A,,Overcast,160,2013-05-16 20:53:00
4:13 PM,80.6,71.6,74,29.84,10.0,SSE,13.8,20.7,N/A,,Overcast,150,2013-05-16 21:13:00
4:53 PM,78.1,70.0,76,29.85,10.0,SSE,15.0,-,N/A,,Overcast,150,2013-05-16 21:53:00
5:53 PM,77.0,70.0,79,29.84,10.0,SSE,12.7,-,N/A,,Overcast,160,2013-05-16 22:53:00
6:53 PM,75.9,70.0,82,29.85,10.0,SSE,9.2,-,N/A,,Overcast,160,2013-05-16 23:53:00
7:53 PM,75.9,70.0,82,29.85,10.0,SSE,9.2,-,N/A,,Overcast,150,2013-05-17 00:53:00
8:45 PM,75.2,69.8,83,29.85,10.0,SSE,6.9,-,N/A,,Overcast,160,2013-05-17 01:45:00
8:53 PM,75.0,70.0,84,29.86,10.0,SSE,8.1,-,N/A,,Overcast,160,2013-05-17 01:53:00
9:53 PM,75.0,71.1,87,29.88,10.0,SSE,8.1,-,N/A,,Overcast,160,2013-05-17 02:53:00
10:53 PM,75.0,71.1,87,29.88,10.0,SSE,9.2,-,N/A,,Overcast,160,2013-05-17 03:53:00
11:53 PM,75.0,71.1,87,29.88,10.0,SSE,12.7,-,N/A,,Overcast,160,2013-05-17 04:53:00